sensor_id;sensor_type;location;lat;lon;timestamp;P1;durP1;ratioP1;P2;durP2;ratioP2
10410;SDS011;5251;52.112;8.606;2022-07-23T00:00:40;7.72;;;4.57;;
10410;SDS011;5251;52.112;8.606;2022-07-23T00:03:06;6.40;;;4.05;;
10410;SDS011;5251;52.112;8.606;2022-07-23T00:05:31;4.50;;;4.10;;
10410;SDS011;5251;52.112;8.606;2022-07-23T00:07:57;5.38;;;4.03;;
10410;SDS011;5251;52.112;8.606;2022-07-23T00:10:22;4.75;;;4.25;;
10410;SDS011;5251;52.112;8.606;2022-07-23T00:12:48;4.45;;;4.05;;
10410;SDS011;5251;52.112;8.606;2022-07-23T00:15:14;4.40;;;4.00;;
10410;SDS011;5251;52.112;8.606;2022-07-23T00:17:39;6.47;;;3.85;;
10410;SDS011;5251;52.112;8.606;2022-07-23T00:20:05;5.57;;;3.95;;
10410;SDS011;5251;52.112;8.606;2022-07-23T00:22:31;4.40;;;4.00;;
10410;SDS011;5251;52.112;8.606;2022-07-23T00:24:57;7.28;;;4.20;;
10410;SDS011;5251;52.112;8.606;2022-07-23T00:27:22;6.07;;;4.22;;
10410;SDS011;5251;52.112;8.606;2022-07-23T00:29:48;5.15;;;4.30;;
10410;SDS011;5251;52.112;8.606;2022-07-23T00:32:14;6.68;;;4.72;;
10410;SDS011;5251;52.112;8.606;2022-07-23T00:34:40;6.95;;;4.70;;
10410;SDS011;5251;52.112;8.606;2022-07-23T00:37:05;6.55;;;4.63;;
10410;SDS011;5251;52.112;8.606;2022-07-23T00:39:31;5.47;;;4.60;;
10410;SDS011;5251;52.112;8.606;2022-07-23T00:41:57;5.05;;;4.55;;
10410;SDS011;5251;52.112;8.606;2022-07-23T00:44:23;5.85;;;4.32;;
10410;SDS011;5251;52.112;8.606;2022-07-23T00:46:54;6.93;;;4.88;;
10410;SDS011;5251;52.112;8.606;2022-07-23T00:49:22;5.15;;;4.22;;
10410;SDS011;5251;52.112;8.606;2022-07-23T00:51:50;13.10;;;4.75;;
10410;SDS011;5251;52.112;8.606;2022-07-23T00:54:16;7.25;;;4.50;;
10410;SDS011;5251;52.112;8.606;2022-07-23T00:56:44;9.60;;;4.30;;
10410;SDS011;5251;52.112;8.606;2022-07-23T00:59:10;6.40;;;4.45;;
10410;SDS011;5251;52.112;8.606;2022-07-23T01:01:36;7.65;;;4.22;;
10410;SDS011;5251;52.112;8.606;2022-07-23T01:04:02;10.43;;;4.78;;
10410;SDS011;5251;52.112;8.606;2022-07-23T01:06:28;10.40;;;4.95;;
10410;SDS011;5251;52.112;8.606;2022-07-23T01:08:54;8.82;;;4.68;;
10410;SDS011;5251;52.112;8.606;2022-07-23T01:11:20;6.68;;;4.28;;
10410;SDS011;5251;52.112;8.606;2022-07-23T01:13:48;6.75;;;4.00;;
10410;SDS011;5251;52.112;8.606;2022-07-23T01:16:13;6.78;;;4.25;;
10410;SDS011;5251;52.112;8.606;2022-07-23T01:18:39;11.70;;;5.00;;
10410;SDS011;5251;52.112;8.606;2022-07-23T01:21:05;9.45;;;4.72;;
10410;SDS011;5251;52.112;8.606;2022-07-23T01:23:30;7.20;;;5.15;;
10410;SDS011;5251;52.112;8.606;2022-07-23T01:25:56;5.68;;;4.63;;
10410;SDS011;5251;52.112;8.606;2022-07-23T01:28:22;8.35;;;5.07;;
10410;SDS011;5251;52.112;8.606;2022-07-23T01:30:48;5.90;;;4.70;;
10410;SDS011;5251;52.112;8.606;2022-07-23T01:33:14;6.32;;;4.45;;
10410;SDS011;5251;52.112;8.606;2022-07-23T01:35:40;5.00;;;4.55;;
10410;SDS011;5251;52.112;8.606;2022-07-23T01:38:06;7.05;;;4.80;;
10410;SDS011;5251;52.112;8.606;2022-07-23T01:40:31;4.82;;;4.20;;
10410;SDS011;5251;52.112;8.606;2022-07-23T01:42:57;6.65;;;4.70;;
10410;SDS011;5251;52.112;8.606;2022-07-23T01:45:23;9.45;;;5.13;;
10410;SDS011;5251;52.112;8.606;2022-07-23T01:47:49;16.90;;;5.45;;
10410;SDS011;5251;52.112;8.606;2022-07-23T01:50:15;10.65;;;4.80;;
10410;SDS011;5251;52.112;8.606;2022-07-23T01:52:40;17.90;;;4.82;;
10410;SDS011;5251;52.112;8.606;2022-07-23T01:55:06;12.32;;;4.75;;
10410;SDS011;5251;52.112;8.606;2022-07-23T01:57:32;7.72;;;4.45;;
10410;SDS011;5251;52.112;8.606;2022-07-23T01:59:58;7.95;;;4.70;;
10410;SDS011;5251;52.112;8.606;2022-07-23T02:02:23;7.15;;;5.15;;
10410;SDS011;5251;52.112;8.606;2022-07-23T02:04:49;9.23;;;5.40;;
10410;SDS011;5251;52.112;8.606;2022-07-23T02:07:15;5.53;;;5.03;;
10410;SDS011;5251;52.112;8.606;2022-07-23T02:09:40;7.00;;;5.15;;
10410;SDS011;5251;52.112;8.606;2022-07-23T02:12:06;7.78;;;5.32;;
10410;SDS011;5251;52.112;8.606;2022-07-23T02:14:32;5.97;;;5.20;;
10410;SDS011;5251;52.112;8.606;2022-07-23T02:16:57;6.38;;;5.25;;
10410;SDS011;5251;52.112;8.606;2022-07-23T02:19:23;7.63;;;5.20;;
10410;SDS011;5251;52.112;8.606;2022-07-23T02:21:48;5.25;;;4.72;;
10410;SDS011;5251;52.112;8.606;2022-07-23T02:24:14;7.72;;;5.32;;
10410;SDS011;5251;52.112;8.606;2022-07-23T02:26:40;15.82;;;5.00;;
10410;SDS011;5251;52.112;8.606;2022-07-23T02:29:05;10.38;;;5.03;;
10410;SDS011;5251;52.112;8.606;2022-07-23T02:31:31;9.30;;;4.90;;
10410;SDS011;5251;52.112;8.606;2022-07-23T02:33:57;7.28;;;4.90;;
10410;SDS011;5251;52.112;8.606;2022-07-23T02:36:23;7.47;;;5.10;;
10410;SDS011;5251;52.112;8.606;2022-07-23T02:38:48;10.00;;;4.80;;
10410;SDS011;5251;52.112;8.606;2022-07-23T02:41:14;13.40;;;5.38;;
10410;SDS011;5251;52.112;8.606;2022-07-23T02:43:40;8.25;;;4.95;;
10410;SDS011;5251;52.112;8.606;2022-07-23T02:46:05;12.25;;;5.60;;
10410;SDS011;5251;52.112;8.606;2022-07-23T02:48:31;20.95;;;5.68;;
10410;SDS011;5251;52.112;8.606;2022-07-23T02:50:56;9.40;;;5.60;;
10410;SDS011;5251;52.112;8.606;2022-07-23T02:53:23;13.23;;;5.43;;
10410;SDS011;5251;52.112;8.606;2022-07-23T02:55:48;7.43;;;5.03;;
10410;SDS011;5251;52.112;8.606;2022-07-23T02:58:14;9.63;;;5.80;;
10410;SDS011;5251;52.112;8.606;2022-07-23T03:00:40;8.75;;;5.05;;
10410;SDS011;5251;52.112;8.606;2022-07-23T03:03:06;9.18;;;5.65;;
10410;SDS011;5251;52.112;8.606;2022-07-23T03:05:32;7.85;;;5.80;;
10410;SDS011;5251;52.112;8.606;2022-07-23T03:07:58;8.65;;;5.93;;
10410;SDS011;5251;52.112;8.606;2022-07-23T03:10:24;9.15;;;5.13;;
10410;SDS011;5251;52.112;8.606;2022-07-23T03:12:50;7.93;;;4.93;;
10410;SDS011;5251;52.112;8.606;2022-07-23T03:15:16;8.65;;;5.38;;
10410;SDS011;5251;52.112;8.606;2022-07-23T03:17:41;7.10;;;5.13;;
10410;SDS011;5251;52.112;8.606;2022-07-23T03:20:07;6.60;;;4.95;;
10410;SDS011;5251;52.112;8.606;2022-07-23T03:22:33;7.22;;;5.43;;
10410;SDS011;5251;52.112;8.606;2022-07-23T03:24:59;10.02;;;5.95;;
10410;SDS011;5251;52.112;8.606;2022-07-23T03:27:25;11.48;;;5.22;;
10410;SDS011;5251;52.112;8.606;2022-07-23T03:29:53;6.82;;;4.85;;
10410;SDS011;5251;52.112;8.606;2022-07-23T03:32:20;8.10;;;5.82;;
10410;SDS011;5251;52.112;8.606;2022-07-23T03:34:46;9.05;;;5.40;;
10410;SDS011;5251;52.112;8.606;2022-07-23T03:37:12;7.13;;;4.88;;
10410;SDS011;5251;52.112;8.606;2022-07-23T03:39:37;6.85;;;4.63;;
10410;SDS011;5251;52.112;8.606;2022-07-23T03:42:03;7.68;;;5.20;;
10410;SDS011;5251;52.112;8.606;2022-07-23T03:44:29;7.03;;;5.07;;
10410;SDS011;5251;52.112;8.606;2022-07-23T03:46:54;9.40;;;4.88;;
10410;SDS011;5251;52.112;8.606;2022-07-23T03:49:20;8.00;;;5.18;;
10410;SDS011;5251;52.112;8.606;2022-07-23T03:51:46;8.82;;;5.38;;
10410;SDS011;5251;52.112;8.606;2022-07-23T03:54:11;8.20;;;4.93;;
10410;SDS011;5251;52.112;8.606;2022-07-23T03:56:37;9.00;;;5.43;;
10410;SDS011;5251;52.112;8.606;2022-07-23T03:59:03;8.48;;;5.28;;
10410;SDS011;5251;52.112;8.606;2022-07-23T04:01:28;7.32;;;4.93;;
10410;SDS011;5251;52.112;8.606;2022-07-23T04:03:54;10.07;;;5.55;;
10410;SDS011;5251;52.112;8.606;2022-07-23T04:06:19;8.63;;;5.20;;
10410;SDS011;5251;52.112;8.606;2022-07-23T04:08:45;6.00;;;4.88;;
10410;SDS011;5251;52.112;8.606;2022-07-23T04:11:11;6.88;;;5.38;;
10410;SDS011;5251;52.112;8.606;2022-07-23T04:13:36;7.53;;;5.70;;
10410;SDS011;5251;52.112;8.606;2022-07-23T04:16:02;10.52;;;5.82;;
10410;SDS011;5251;52.112;8.606;2022-07-23T04:18:28;5.13;;;4.63;;
10410;SDS011;5251;52.112;8.606;2022-07-23T04:20:54;7.38;;;5.63;;
10410;SDS011;5251;52.112;8.606;2022-07-23T04:23:20;6.72;;;5.25;;
10410;SDS011;5251;52.112;8.606;2022-07-23T04:25:46;6.55;;;5.35;;
10410;SDS011;5251;52.112;8.606;2022-07-23T04:28:11;7.07;;;5.45;;
10410;SDS011;5251;52.112;8.606;2022-07-23T04:30:37;9.68;;;6.10;;
10410;SDS011;5251;52.112;8.606;2022-07-23T04:33:03;8.18;;;5.47;;
10410;SDS011;5251;52.112;8.606;2022-07-23T04:35:31;9.05;;;5.47;;
10410;SDS011;5251;52.112;8.606;2022-07-23T04:37:58;6.07;;;5.47;;
10410;SDS011;5251;52.112;8.606;2022-07-23T04:40:24;7.63;;;5.68;;
10410;SDS011;5251;52.112;8.606;2022-07-23T04:42:50;8.02;;;5.25;;
10410;SDS011;5251;52.112;8.606;2022-07-23T04:45:15;15.32;;;5.25;;
10410;SDS011;5251;52.112;8.606;2022-07-23T04:47:41;9.43;;;5.65;;
10410;SDS011;5251;52.112;8.606;2022-07-23T04:50:07;10.57;;;5.80;;
10410;SDS011;5251;52.112;8.606;2022-07-23T04:52:32;6.43;;;4.90;;
10410;SDS011;5251;52.112;8.606;2022-07-23T04:54:58;8.02;;;5.18;;
10410;SDS011;5251;52.112;8.606;2022-07-23T04:57:24;11.63;;;6.00;;
10410;SDS011;5251;52.112;8.606;2022-07-23T04:59:49;8.70;;;5.25;;
10410;SDS011;5251;52.112;8.606;2022-07-23T05:02:15;7.57;;;5.30;;
10410;SDS011;5251;52.112;8.606;2022-07-23T05:04:40;6.28;;;5.28;;
10410;SDS011;5251;52.112;8.606;2022-07-23T05:07:06;7.25;;;5.78;;
10410;SDS011;5251;52.112;8.606;2022-07-23T05:09:32;10.45;;;6.15;;
10410;SDS011;5251;52.112;8.606;2022-07-23T05:11:57;6.75;;;6.03;;
10410;SDS011;5251;52.112;8.606;2022-07-23T05:14:23;6.38;;;5.57;;
10410;SDS011;5251;52.112;8.606;2022-07-23T05:16:48;8.77;;;5.70;;
10410;SDS011;5251;52.112;8.606;2022-07-23T05:19:14;6.65;;;5.63;;
10410;SDS011;5251;52.112;8.606;2022-07-23T05:21:39;6.57;;;5.40;;
10410;SDS011;5251;52.112;8.606;2022-07-23T05:24:05;5.95;;;5.35;;
10410;SDS011;5251;52.112;8.606;2022-07-23T05:26:31;6.85;;;5.25;;
10410;SDS011;5251;52.112;8.606;2022-07-23T05:28:56;8.20;;;5.38;;
10410;SDS011;5251;52.112;8.606;2022-07-23T05:31:22;6.20;;;5.13;;
10410;SDS011;5251;52.112;8.606;2022-07-23T05:33:48;5.80;;;5.20;;
10410;SDS011;5251;52.112;8.606;2022-07-23T05:36:13;7.60;;;5.65;;
10410;SDS011;5251;52.112;8.606;2022-07-23T05:38:39;5.82;;;5.03;;
10410;SDS011;5251;52.112;8.606;2022-07-23T05:41:05;6.97;;;5.47;;
10410;SDS011;5251;52.112;8.606;2022-07-23T05:43:30;6.10;;;5.53;;
10410;SDS011;5251;52.112;8.606;2022-07-23T05:45:56;7.32;;;5.20;;
10410;SDS011;5251;52.112;8.606;2022-07-23T05:48:21;6.15;;;4.90;;
10410;SDS011;5251;52.112;8.606;2022-07-23T05:50:47;6.82;;;5.50;;
10410;SDS011;5251;52.112;8.606;2022-07-23T05:53:13;6.18;;;5.30;;
10410;SDS011;5251;52.112;8.606;2022-07-23T05:55:39;7.20;;;4.90;;
10410;SDS011;5251;52.112;8.606;2022-07-23T05:58:04;6.15;;;5.20;;
10410;SDS011;5251;52.112;8.606;2022-07-23T06:00:30;5.30;;;4.80;;
10410;SDS011;5251;52.112;8.606;2022-07-23T06:02:56;5.45;;;4.95;;
10410;SDS011;5251;52.112;8.606;2022-07-23T06:05:22;6.20;;;4.90;;
10410;SDS011;5251;52.112;8.606;2022-07-23T06:07:48;7.15;;;4.97;;
10410;SDS011;5251;52.112;8.606;2022-07-23T06:10:14;6.05;;;4.88;;
10410;SDS011;5251;52.112;8.606;2022-07-23T06:12:40;5.63;;;4.50;;
10410;SDS011;5251;52.112;8.606;2022-07-23T06:15:06;6.82;;;4.78;;
10410;SDS011;5251;52.112;8.606;2022-07-23T06:17:32;8.73;;;5.57;;
10410;SDS011;5251;52.112;8.606;2022-07-23T06:19:57;5.45;;;4.88;;
10410;SDS011;5251;52.112;8.606;2022-07-23T06:22:23;5.80;;;4.78;;
10410;SDS011;5251;52.112;8.606;2022-07-23T06:24:49;5.63;;;4.85;;
10410;SDS011;5251;52.112;8.606;2022-07-23T06:27:16;5.40;;;4.68;;
10410;SDS011;5251;52.112;8.606;2022-07-23T06:29:42;6.18;;;4.82;;
10410;SDS011;5251;52.112;8.606;2022-07-23T06:32:08;4.90;;;4.43;;
10410;SDS011;5251;52.112;8.606;2022-07-23T06:34:34;6.20;;;5.18;;
10410;SDS011;5251;52.112;8.606;2022-07-23T06:36:59;5.90;;;5.18;;
10410;SDS011;5251;52.112;8.606;2022-07-23T06:39:25;8.35;;;4.97;;
10410;SDS011;5251;52.112;8.606;2022-07-23T06:41:51;5.28;;;4.68;;
10410;SDS011;5251;52.112;8.606;2022-07-23T06:44:17;6.45;;;5.10;;
10410;SDS011;5251;52.112;8.606;2022-07-23T06:46:43;5.30;;;4.60;;
10410;SDS011;5251;52.112;8.606;2022-07-23T06:49:09;5.18;;;4.45;;
10410;SDS011;5251;52.112;8.606;2022-07-23T06:51:35;5.05;;;4.55;;
10410;SDS011;5251;52.112;8.606;2022-07-23T06:54:01;6.43;;;4.28;;
10410;SDS011;5251;52.112;8.606;2022-07-23T06:56:27;4.10;;;3.70;;
10410;SDS011;5251;52.112;8.606;2022-07-23T06:58:52;4.50;;;3.97;;
10410;SDS011;5251;52.112;8.606;2022-07-23T07:01:18;4.43;;;3.80;;
10410;SDS011;5251;52.112;8.606;2022-07-23T07:03:43;4.18;;;3.70;;
10410;SDS011;5251;52.112;8.606;2022-07-23T07:06:09;4.97;;;3.53;;
10410;SDS011;5251;52.112;8.606;2022-07-23T07:08:35;5.28;;;3.70;;
10410;SDS011;5251;52.112;8.606;2022-07-23T07:11:01;4.25;;;3.60;;
10410;SDS011;5251;52.112;8.606;2022-07-23T07:13:26;5.13;;;3.97;;
10410;SDS011;5251;52.112;8.606;2022-07-23T07:15:52;4.07;;;3.33;;
10410;SDS011;5251;52.112;8.606;2022-07-23T07:18:17;5.28;;;3.42;;
10410;SDS011;5251;52.112;8.606;2022-07-23T07:20:43;4.00;;;3.20;;
10410;SDS011;5251;52.112;8.606;2022-07-23T07:23:09;5.07;;;3.28;;
10410;SDS011;5251;52.112;8.606;2022-07-23T07:25:34;3.58;;;2.70;;
10410;SDS011;5251;52.112;8.606;2022-07-23T07:28:00;4.50;;;3.03;;
10410;SDS011;5251;52.112;8.606;2022-07-23T07:30:26;5.15;;;3.00;;
10410;SDS011;5251;52.112;8.606;2022-07-23T07:32:51;4.00;;;2.95;;
10410;SDS011;5251;52.112;8.606;2022-07-23T07:35:17;3.83;;;2.58;;
10410;SDS011;5251;52.112;8.606;2022-07-23T07:37:43;3.53;;;2.80;;
10410;SDS011;5251;52.112;8.606;2022-07-23T07:40:08;4.00;;;2.67;;
10410;SDS011;5251;52.112;8.606;2022-07-23T07:42:34;3.60;;;2.78;;
10410;SDS011;5251;52.112;8.606;2022-07-23T07:45:08;2.90;;;2.40;;
10410;SDS011;5251;52.112;8.606;2022-07-23T07:47:34;3.10;;;2.80;;
10410;SDS011;5251;52.112;8.606;2022-07-23T07:50:00;3.03;;;2.67;;
10410;SDS011;5251;52.112;8.606;2022-07-23T07:52:25;3.15;;;2.67;;
10410;SDS011;5251;52.112;8.606;2022-07-23T07:54:51;3.17;;;2.40;;
10410;SDS011;5251;52.112;8.606;2022-07-23T07:57:17;3.15;;;2.55;;
10410;SDS011;5251;52.112;8.606;2022-07-23T07:59:42;4.63;;;2.60;;
10410;SDS011;5251;52.112;8.606;2022-07-23T08:02:08;3.15;;;2.53;;
10410;SDS011;5251;52.112;8.606;2022-07-23T08:04:33;3.55;;;2.50;;
10410;SDS011;5251;52.112;8.606;2022-07-23T08:06:59;2.80;;;2.30;;
10410;SDS011;5251;52.112;8.606;2022-07-23T08:09:25;2.95;;;2.53;;
10410;SDS011;5251;52.112;8.606;2022-07-23T08:11:50;3.88;;;2.53;;
10410;SDS011;5251;52.112;8.606;2022-07-23T08:14:16;4.43;;;2.30;;
10410;SDS011;5251;52.112;8.606;2022-07-23T08:16:43;3.38;;;2.70;;
10410;SDS011;5251;52.112;8.606;2022-07-23T08:19:08;3.10;;;2.33;;
10410;SDS011;5251;52.112;8.606;2022-07-23T08:21:34;2.40;;;2.15;;
10410;SDS011;5251;52.112;8.606;2022-07-23T08:24:00;3.05;;;2.50;;
10410;SDS011;5251;52.112;8.606;2022-07-23T08:26:25;2.97;;;2.20;;
10410;SDS011;5251;52.112;8.606;2022-07-23T08:28:51;3.17;;;2.40;;
10410;SDS011;5251;52.112;8.606;2022-07-23T08:31:16;2.40;;;2.20;;
10410;SDS011;5251;52.112;8.606;2022-07-23T08:33:42;2.72;;;2.42;;
10410;SDS011;5251;52.112;8.606;2022-07-23T08:36:08;2.35;;;2.10;;
10410;SDS011;5251;52.112;8.606;2022-07-23T08:38:34;4.00;;;3.03;;
10410;SDS011;5251;52.112;8.606;2022-07-23T08:41:00;2.67;;;2.45;;
10410;SDS011;5251;52.112;8.606;2022-07-23T08:43:30;3.80;;;2.17;;
10410;SDS011;5251;52.112;8.606;2022-07-23T08:45:59;2.85;;;2.40;;
10410;SDS011;5251;52.112;8.606;2022-07-23T08:48:27;3.05;;;2.50;;
10410;SDS011;5251;52.112;8.606;2022-07-23T08:50:55;2.85;;;2.60;;
10410;SDS011;5251;52.112;8.606;2022-07-23T08:53:23;3.03;;;2.50;;
10410;SDS011;5251;52.112;8.606;2022-07-23T08:55:50;2.80;;;2.50;;
10410;SDS011;5251;52.112;8.606;2022-07-23T08:58:17;2.67;;;2.33;;
10410;SDS011;5251;52.112;8.606;2022-07-23T09:00:43;3.38;;;2.50;;
10410;SDS011;5251;52.112;8.606;2022-07-23T09:03:17;2.70;;;2.50;;
10410;SDS011;5251;52.112;8.606;2022-07-23T09:05:57;3.13;;;2.70;;
10410;SDS011;5251;52.112;8.606;2022-07-23T09:08:24;3.75;;;3.00;;
10410;SDS011;5251;52.112;8.606;2022-07-23T09:10:55;3.10;;;2.55;;
10410;SDS011;5251;52.112;8.606;2022-07-23T09:18:46;2.60;;;2.40;;
10410;SDS011;5251;52.112;8.606;2022-07-23T09:26:41;2.78;;;2.38;;
10410;SDS011;5251;52.112;8.606;2022-07-23T09:34:16;2.70;;;2.17;;
10410;SDS011;5251;52.112;8.606;2022-07-23T09:36:42;3.00;;;2.55;;
10410;SDS011;5251;52.112;8.606;2022-07-23T09:39:09;2.30;;;2.10;;
10410;SDS011;5251;52.112;8.606;2022-07-23T09:41:36;2.80;;;2.25;;
10410;SDS011;5251;52.112;8.606;2022-07-23T09:44:07;2.72;;;2.20;;
10410;SDS011;5251;52.112;8.606;2022-07-23T09:46:41;2.92;;;2.10;;
10410;SDS011;5251;52.112;8.606;2022-07-23T09:49:15;2.53;;;2.22;;
10410;SDS011;5251;52.112;8.606;2022-07-23T09:51:51;2.72;;;2.45;;
10410;SDS011;5251;52.112;8.606;2022-07-23T09:54:37;3.72;;;2.20;;
10410;SDS011;5251;52.112;8.606;2022-07-23T09:57:11;3.28;;;2.20;;
10410;SDS011;5251;52.112;8.606;2022-07-23T09:59:39;3.05;;;2.38;;
10410;SDS011;5251;52.112;8.606;2022-07-23T10:02:06;2.03;;;1.77;;
10410;SDS011;5251;52.112;8.606;2022-07-23T10:04:33;2.45;;;2.25;;
10410;SDS011;5251;52.112;8.606;2022-07-23T10:07:00;3.08;;;2.00;;
10410;SDS011;5251;52.112;8.606;2022-07-23T10:09:28;2.28;;;1.80;;
10410;SDS011;5251;52.112;8.606;2022-07-23T10:11:57;1.98;;;1.77;;
10410;SDS011;5251;52.112;8.606;2022-07-23T10:14:41;3.95;;;2.55;;
10410;SDS011;5251;52.112;8.606;2022-07-23T10:17:07;2.40;;;2.10;;
10410;SDS011;5251;52.112;8.606;2022-07-23T10:19:33;2.22;;;2.03;;
10410;SDS011;5251;52.112;8.606;2022-07-23T10:22:00;1.63;;;1.52;;
10410;SDS011;5251;52.112;8.606;2022-07-23T10:30:14;1.60;;;1.50;;
10410;SDS011;5251;52.112;8.606;2022-07-23T10:36:07;1.70;;;1.60;;
10410;SDS011;5251;52.112;8.606;2022-07-23T10:38:39;1.75;;;1.50;;
10410;SDS011;5251;52.112;8.606;2022-07-23T10:41:13;1.85;;;1.40;;
10410;SDS011;5251;52.112;8.606;2022-07-23T10:43:38;3.40;;;1.60;;
10410;SDS011;5251;52.112;8.606;2022-07-23T10:46:24;2.22;;;1.48;;
10410;SDS011;5251;52.112;8.606;2022-07-23T10:49:20;1.58;;;1.13;;
10410;SDS011;5251;52.112;8.606;2022-07-23T10:54:53;1.63;;;1.40;;
10410;SDS011;5251;52.112;8.606;2022-07-23T10:57:48;1.60;;;1.40;;
10410;SDS011;5251;52.112;8.606;2022-07-23T11:00:25;1.52;;;1.30;;
10410;SDS011;5251;52.112;8.606;2022-07-23T11:02:54;1.50;;;1.40;;
10410;SDS011;5251;52.112;8.606;2022-07-23T11:05:23;1.30;;;1.20;;
10410;SDS011;5251;52.112;8.606;2022-07-23T11:10:32;3.58;;;1.73;;
10410;SDS011;5251;52.112;8.606;2022-07-23T11:31:52;1.85;;;1.30;;
10410;SDS011;5251;52.112;8.606;2022-07-23T11:37:08;1.65;;;1.35;;
10410;SDS011;5251;52.112;8.606;2022-07-23T11:39:36;1.52;;;1.42;;
10410;SDS011;5251;52.112;8.606;2022-07-23T11:42:03;2.58;;;1.20;;
10410;SDS011;5251;52.112;8.606;2022-07-23T11:44:34;2.47;;;1.38;;
10410;SDS011;5251;52.112;8.606;2022-07-23T11:47:03;1.38;;;1.27;;
10410;SDS011;5251;52.112;8.606;2022-07-23T11:49:33;1.25;;;1.17;;
10410;SDS011;5251;52.112;8.606;2022-07-23T11:52:05;1.60;;;1.30;;
10410;SDS011;5251;52.112;8.606;2022-07-23T11:54:33;1.50;;;1.27;;
10410;SDS011;5251;52.112;8.606;2022-07-23T11:57:01;1.70;;;1.30;;
10410;SDS011;5251;52.112;8.606;2022-07-23T11:59:29;1.50;;;1.20;;
10410;SDS011;5251;52.112;8.606;2022-07-23T12:04:23;1.60;;;1.17;;
10410;SDS011;5251;52.112;8.606;2022-07-23T12:06:49;1.60;;;1.20;;
10410;SDS011;5251;52.112;8.606;2022-07-23T12:09:14;3.58;;;1.13;;
10410;SDS011;5251;52.112;8.606;2022-07-23T12:11:55;1.30;;;1.20;;
10410;SDS011;5251;52.112;8.606;2022-07-23T12:14:25;1.67;;;1.30;;
10410;SDS011;5251;52.112;8.606;2022-07-23T12:17:07;1.55;;;1.30;;
10410;SDS011;5251;52.112;8.606;2022-07-23T12:19:35;1.63;;;1.30;;
10410;SDS011;5251;52.112;8.606;2022-07-23T12:22:01;1.70;;;1.48;;
10410;SDS011;5251;52.112;8.606;2022-07-23T12:24:27;1.40;;;1.30;;
10410;SDS011;5251;52.112;8.606;2022-07-23T12:27:09;3.42;;;1.25;;
10410;SDS011;5251;52.112;8.606;2022-07-23T12:29:38;1.58;;;1.45;;
10410;SDS011;5251;52.112;8.606;2022-07-23T12:32:26;2.15;;;1.30;;
10410;SDS011;5251;52.112;8.606;2022-07-23T12:35:04;2.83;;;1.40;;
10410;SDS011;5251;52.112;8.606;2022-07-23T12:37:33;1.95;;;1.30;;
10410;SDS011;5251;52.112;8.606;2022-07-23T12:40:18;1.95;;;1.20;;
10410;SDS011;5251;52.112;8.606;2022-07-23T12:42:46;1.25;;;1.15;;
10410;SDS011;5251;52.112;8.606;2022-07-23T12:45:13;2.50;;;1.42;;
10410;SDS011;5251;52.112;8.606;2022-07-23T12:48:02;1.92;;;1.15;;
10410;SDS011;5251;52.112;8.606;2022-07-23T12:50:41;1.13;;;1.02;;
10410;SDS011;5251;52.112;8.606;2022-07-23T12:53:16;3.08;;;1.13;;
10410;SDS011;5251;52.112;8.606;2022-07-23T12:56:06;1.33;;;1.23;;
10410;SDS011;5251;52.112;8.606;2022-07-23T13:03:57;1.30;;;1.20;;
10410;SDS011;5251;52.112;8.606;2022-07-23T13:06:26;1.83;;;1.10;;
10410;SDS011;5251;52.112;8.606;2022-07-23T13:08:56;1.40;;;1.30;;
10410;SDS011;5251;52.112;8.606;2022-07-23T13:11:23;1.48;;;1.20;;
10410;SDS011;5251;52.112;8.606;2022-07-23T13:13:49;1.30;;;1.20;;
10410;SDS011;5251;52.112;8.606;2022-07-23T13:16:14;1.65;;;1.20;;
10410;SDS011;5251;52.112;8.606;2022-07-23T13:18:40;1.40;;;1.10;;
10410;SDS011;5251;52.112;8.606;2022-07-23T13:21:06;1.98;;;1.33;;
10410;SDS011;5251;52.112;8.606;2022-07-23T13:23:33;1.02;;;0.88;;
10410;SDS011;5251;52.112;8.606;2022-07-23T13:25:58;1.13;;;1.00;;
10410;SDS011;5251;52.112;8.606;2022-07-23T13:28:24;1.58;;;1.00;;
10410;SDS011;5251;52.112;8.606;2022-07-23T13:30:50;1.08;;;1.00;;
10410;SDS011;5251;52.112;8.606;2022-07-23T13:33:17;1.13;;;0.98;;
10410;SDS011;5251;52.112;8.606;2022-07-23T13:35:45;1.42;;;1.10;;
10410;SDS011;5251;52.112;8.606;2022-07-23T13:38:11;1.20;;;1.08;;
10410;SDS011;5251;52.112;8.606;2022-07-23T13:40:38;1.52;;;1.23;;
10410;SDS011;5251;52.112;8.606;2022-07-23T13:43:07;2.17;;;1.10;;
10410;SDS011;5251;52.112;8.606;2022-07-23T13:45:34;1.40;;;1.10;;
10410;SDS011;5251;52.112;8.606;2022-07-23T13:47:59;1.70;;;1.10;;
10410;SDS011;5251;52.112;8.606;2022-07-23T13:50:25;1.02;;;1.02;;
10410;SDS011;5251;52.112;8.606;2022-07-23T13:52:51;1.60;;;1.20;;
10410;SDS011;5251;52.112;8.606;2022-07-23T13:55:16;4.78;;;1.10;;
10410;SDS011;5251;52.112;8.606;2022-07-23T13:57:42;2.28;;;1.40;;
10410;SDS011;5251;52.112;8.606;2022-07-23T14:00:09;1.33;;;1.15;;
10410;SDS011;5251;52.112;8.606;2022-07-23T14:02:37;1.10;;;1.00;;
10410;SDS011;5251;52.112;8.606;2022-07-23T14:05:04;1.20;;;1.08;;
10410;SDS011;5251;52.112;8.606;2022-07-23T14:07:31;1.30;;;1.20;;
10410;SDS011;5251;52.112;8.606;2022-07-23T14:09:56;2.03;;;1.10;;
10410;SDS011;5251;52.112;8.606;2022-07-23T14:12:22;1.15;;;1.00;;
10410;SDS011;5251;52.112;8.606;2022-07-23T14:14:47;0.90;;;0.90;;
10410;SDS011;5251;52.112;8.606;2022-07-23T14:17:13;1.88;;;1.02;;
10410;SDS011;5251;52.112;8.606;2022-07-23T14:19:39;0.82;;;0.80;;
10410;SDS011;5251;52.112;8.606;2022-07-23T14:22:04;1.20;;;1.10;;
10410;SDS011;5251;52.112;8.606;2022-07-23T14:24:30;0.90;;;0.90;;
10410;SDS011;5251;52.112;8.606;2022-07-23T14:26:55;1.30;;;1.20;;
10410;SDS011;5251;52.112;8.606;2022-07-23T14:29:21;1.33;;;1.00;;
10410;SDS011;5251;52.112;8.606;2022-07-23T14:31:47;1.48;;;1.30;;
10410;SDS011;5251;52.112;8.606;2022-07-23T14:34:13;1.67;;;1.40;;
10410;SDS011;5251;52.112;8.606;2022-07-23T14:36:39;1.25;;;1.10;;
10410;SDS011;5251;52.112;8.606;2022-07-23T14:39:04;4.10;;;2.28;;
10410;SDS011;5251;52.112;8.606;2022-07-23T14:41:30;2.22;;;1.42;;
10410;SDS011;5251;52.112;8.606;2022-07-23T14:43:56;1.02;;;0.90;;
10410;SDS011;5251;52.112;8.606;2022-07-23T14:46:21;1.80;;;1.20;;
10410;SDS011;5251;52.112;8.606;2022-07-23T14:48:47;1.02;;;0.93;;
10410;SDS011;5251;52.112;8.606;2022-07-23T14:51:13;1.38;;;1.10;;
10410;SDS011;5251;52.112;8.606;2022-07-23T14:53:38;1.10;;;0.98;;
10410;SDS011;5251;52.112;8.606;2022-07-23T14:56:04;1.80;;;1.00;;
10410;SDS011;5251;52.112;8.606;2022-07-23T14:58:30;1.17;;;1.02;;
10410;SDS011;5251;52.112;8.606;2022-07-23T15:00:55;2.28;;;1.40;;
10410;SDS011;5251;52.112;8.606;2022-07-23T15:03:21;1.55;;;1.10;;
10410;SDS011;5251;52.112;8.606;2022-07-23T15:05:46;1.50;;;1.10;;
10410;SDS011;5251;52.112;8.606;2022-07-23T15:08:12;1.10;;;1.00;;
10410;SDS011;5251;52.112;8.606;2022-07-23T15:10:38;1.70;;;1.33;;
10410;SDS011;5251;52.112;8.606;2022-07-23T15:13:03;1.20;;;1.10;;
10410;SDS011;5251;52.112;8.606;2022-07-23T15:15:29;1.42;;;1.33;;
10410;SDS011;5251;52.112;8.606;2022-07-23T15:17:55;1.02;;;1.00;;
10410;SDS011;5251;52.112;8.606;2022-07-23T15:20:21;1.52;;;1.20;;
10410;SDS011;5251;52.112;8.606;2022-07-23T15:22:46;1.67;;;1.08;;
10410;SDS011;5251;52.112;8.606;2022-07-23T15:25:13;1.27;;;1.00;;
10410;SDS011;5251;52.112;8.606;2022-07-23T15:27:38;1.05;;;1.00;;
10410;SDS011;5251;52.112;8.606;2022-07-23T15:30:04;2.35;;;1.00;;
10410;SDS011;5251;52.112;8.606;2022-07-23T15:32:30;1.20;;;1.10;;
10410;SDS011;5251;52.112;8.606;2022-07-23T15:34:56;2.55;;;1.35;;
10410;SDS011;5251;52.112;8.606;2022-07-23T15:37:22;1.20;;;1.10;;
10410;SDS011;5251;52.112;8.606;2022-07-23T15:39:48;1.05;;;1.00;;
10410;SDS011;5251;52.112;8.606;2022-07-23T15:42:14;1.52;;;0.90;;
10410;SDS011;5251;52.112;8.606;2022-07-23T15:44:40;1.23;;;1.13;;
10410;SDS011;5251;52.112;8.606;2022-07-23T15:47:07;1.00;;;1.00;;
10410;SDS011;5251;52.112;8.606;2022-07-23T15:49:37;2.10;;;1.30;;
10410;SDS011;5251;52.112;8.606;2022-07-23T15:52:02;1.13;;;1.00;;
10410;SDS011;5251;52.112;8.606;2022-07-23T15:54:28;1.30;;;1.10;;
10410;SDS011;5251;52.112;8.606;2022-07-23T15:56:54;1.17;;;1.00;;
10410;SDS011;5251;52.112;8.606;2022-07-23T15:59:19;1.50;;;1.17;;